Langlois, OR (97450)

4:42 PM PDT on July 30, 2015 (GMT -0700)
Port Orford RV Village | | Change Station
CLOSE
Current Station
Personal Weather Station
Location: Port Orford, OR
Elevation: 47 ft
Nearby Weather Stations
Active Advisory: Fire Weather Warning

Elev 47 ft 42.76 °N, 124.49 °W | Updated 6 seconds ago

Clear
Clear
69.7 °F
Feels Like 69.7 °F
N
1.0
Wind Variable Wind from SE
Gusts 3.0 mph

Today
High -- | Low -- °F
--% Chance of Precip.
Yesterday
High -- | Low -- °F
Precip. -- in
6:06 AM 8:41 PM
Full, 100% visible
Pressure 30.05 in
Visibility 10.0 miles
Clouds Clear
Dew Point 58 °F
Humidity 67%
Rainfall 0.00 in
Snow Depth Not available.
UV 6 out of 12
Pollen 5.00 out of 12
Air Quality Not available.
Flu Activity Not available.
METAR KOTH 302335Z 32008KT 290V350 10SM CLR 21/16 A3005 RMK AO1

More Conditions Fewer Conditions

Pressure 30.05 in
Visibility 10.0 miles
Clouds Clear
Dew Point 58 °F
Humidity 67%
Rainfall 0.00 in
Snow Depth Not available.
UV 6 out of 12
Pollen 5.00 out of 12
Air Quality Not available.
Flu Activity Not available.
METAR KOTH 302335Z 32008KT 290V350 10SM CLR 21/16 A3005 RMK AO1

More Conditions Fewer Conditions

10-Day Weather Forecast

×

Almanac

Astronomy

Jul. 30, 2015 Rise Set
Actual Time
Civil Twilight
Nautical Twilight
Astronomical Twilight
Moon
Length of Visible Light
Length of Day
Tomorrow will be .
, % of the Moon is Illuminated

Today's Extremes

State Highs State Lows

Community

WunderPhotos

Upload Photos

1,842,543 photos uploaded!

WunderBlogs® & News

Nearby

Air Quality

  Air Quality AQ Index Pollutant
Not available.

Snow Depth

Station Depth Elevation

Earthquake Activity

City Distance Mag. Time & Date
Minimum magnitude displayed is 2.5.

Coastal Water Temperatures

Place Temperature

Stations

Nearby Weather Stations

Station Location Temp. Windchill Dew Point Humidity Wind Precip. Elev Updated Type
                   
Fire Weather Warning
Statement as of 4:23 PM PDT on July 30, 2015

... Red flag warning now in effect until 9 PM PDT Friday for a
Haines index of 6 over the Cable Crossing wildfire in Oregon fire
weather zone 616... ...

* Haines index: 6 (high).

* Impacts: very dry and unstable conditions will support extreme
fire behavior. Plume domination is possible with locally-
generated erratic and gusty winds. Spotting could be a problem.

* Affected area: in and around the Cable Crossing fire and the
Stouts fire in fire weather zone 616.

* Counties affected: north central Douglas County.

* Humidity: minimum of 10-15 percent.

Precautionary/preparedness actions...

Wildfire crews should prepare for the potential of plume dominated
fire Thursday afternoon.